createdAt,value
2016-12-31T00:00:03.268Z,25.38
2016-12-31T00:00:18.097Z,25.39
2016-12-31T00:00:32.878Z,25.41
2016-12-31T00:00:47.631Z,25.32
2016-12-31T00:01:02.430Z,25.41
2016-12-31T00:01:17.215Z,25.38
2016-12-31T00:01:32.001Z,25.39
2016-12-31T00:01:46.813Z,25.41
2016-12-31T00:02:01.629Z,25.48
2016-12-31T00:02:16.422Z,25.41
2016-12-31T00:02:31.166Z,25.49
2016-12-31T00:02:45.927Z,25.52
2016-12-31T00:03:00.756Z,25.48
2016-12-31T00:03:15.504Z,25.57
2016-12-31T00:03:30.250Z,25.57
2016-12-31T00:03:45.265Z,25.64
2016-12-31T00:04:00.042Z,25.64
2016-12-31T00:04:14.785Z,25.66
2016-12-31T00:04:29.620Z,25.67
2016-12-31T00:04:44.387Z,25.64
2016-12-31T00:04:59.148Z,25.54
2016-12-31T00:05:13.943Z,25.63
2016-12-31T00:05:28.766Z,25.7
2016-12-31T00:05:43.582Z,25.66
2016-12-31T00:05:58.333Z,25.62
2016-12-31T00:06:13.155Z,25.57
2016-12-31T00:06:27.995Z,25.64
2016-12-31T00:06:42.833Z,25.64
2016-12-31T00:06:57.654Z,25.63
2016-12-31T00:07:12.490Z,25.67
2016-12-31T00:07:27.243Z,25.6
2016-12-31T00:07:42.089Z,25.64
2016-12-31T00:07:56.888Z,25.6
2016-12-31T00:08:11.746Z,25.64
2016-12-31T00:08:26.475Z,25.52
2016-12-31T00:08:41.251Z,25.56
2016-12-31T00:08:55.988Z,25.57
2016-12-31T00:09:10.860Z,25.57
2016-12-31T00:09:25.673Z,25.71
2016-12-31T00:09:40.429Z,25.63
2016-12-31T00:09:55.263Z,25.64
2016-12-31T00:10:10.052Z,25.69
2016-12-31T00:10:24.798Z,25.66
2016-12-31T00:10:39.579Z,25.69
2016-12-31T00:10:54.350Z,25.7
2016-12-31T00:11:09.098Z,25.71
2016-12-31T00:11:23.963Z,25.75
2016-12-31T00:11:38.783Z,25.7
2016-12-31T00:11:53.608Z,25.75
2016-12-31T00:12:08.386Z,25.7
2016-12-31T00:12:23.135Z,25.67
2016-12-31T00:12:37.886Z,25.67
2016-12-31T00:12:52.650Z,25.69
2016-12-31T00:13:07.380Z,25.66
2016-12-31T00:13:22.112Z,25.66
2016-12-31T00:13:36.895Z,25.62
2016-12-31T00:13:51.747Z,25.67
2016-12-31T00:14:06.571Z,25.67
2016-12-31T00:14:21.289Z,25.64
2016-12-31T00:14:36.084Z,25.66
2016-12-31T00:14:50.922Z,25.67
2016-12-31T00:15:05.790Z,25.59
2016-12-31T00:15:20.720Z,25.64
2016-12-31T00:15:35.505Z,25.64
2016-12-31T00:15:50.309Z,25.66
2016-12-31T00:16:05.091Z,25.69
2016-12-31T00:16:19.815Z,25.66
2016-12-31T00:16:34.511Z,25.64
2016-12-31T00:16:49.309Z,25.67
2016-12-31T00:17:04.070Z,25.67
2016-12-31T00:17:18.761Z,25.66
2016-12-31T00:17:33.542Z,25.64
2016-12-31T00:17:48.397Z,25.64
2016-12-31T00:18:03.162Z,25.7
2016-12-31T00:18:17.947Z,25.64
2016-12-31T00:18:32.735Z,25.66
2016-12-31T00:18:47.526Z,25.75
2016-12-31T00:19:02.618Z,25.64
2016-12-31T00:19:17.422Z,25.71
2016-12-31T00:19:32.255Z,25.62
2016-12-31T00:19:46.995Z,25.64
2016-12-31T00:20:01.830Z,25.69
2016-12-31T00:20:16.664Z,25.66
2016-12-31T00:20:31.534Z,25.66
2016-12-31T00:20:46.339Z,25.56
2016-12-31T00:21:01.148Z,25.59
2016-12-31T00:21:15.988Z,25.7
2016-12-31T00:21:30.838Z,25.63
2016-12-31T00:21:45.674Z,25.62
2016-12-31T00:22:00.517Z,25.6
2016-12-31T00:22:15.328Z,25.66
2016-12-31T00:22:30.150Z,25.66
2016-12-31T00:22:44.887Z,25.66
2016-12-31T00:22:59.677Z,25.64
2016-12-31T00:23:14.469Z,25.7
2016-12-31T00:23:29.245Z,25.64
2016-12-31T00:23:44.010Z,25.74
2016-12-31T00:23:58.801Z,25.66
2016-12-31T00:24:13.655Z,25.7
2016-12-31T00:24:28.501Z,25.74
2016-12-31T00:24:43.278Z,25.74
2016-12-31T00:24:58.308Z,25.67
2016-12-31T00:25:13.161Z,25.66
2016-12-31T00:25:27.988Z,25.67
2016-12-31T00:25:42.799Z,25.66
2016-12-31T00:25:57.568Z,25.63
2016-12-31T00:26:12.422Z,25.64
2016-12-31T00:26:27.136Z,25.64
2016-12-31T00:26:42.013Z,25.67
2016-12-31T00:26:56.867Z,25.67
2016-12-31T00:27:11.641Z,25.69
2016-12-31T00:27:26.417Z,25.71
2016-12-31T00:27:41.160Z,25.67
2016-12-31T00:27:55.934Z,25.7
2016-12-31T00:28:10.781Z,25.67
2016-12-31T00:28:25.561Z,25.71
2016-12-31T00:28:40.399Z,25.67
2016-12-31T00:28:55.194Z,25.66
2016-12-31T00:29:10.005Z,25.62
2016-12-31T00:29:24.808Z,25.67
2016-12-31T00:29:39.623Z,25.64
2016-12-31T00:29:54.348Z,25.66
2016-12-31T00:30:09.099Z,25.64
2016-12-31T00:30:23.906Z,25.67
2016-12-31T00:30:38.726Z,25.62
2016-12-31T00:30:53.545Z,25.66
2016-12-31T00:31:08.397Z,25.66
2016-12-31T00:31:23.161Z,25.67
2016-12-31T00:31:37.961Z,25.63
2016-12-31T00:31:52.831Z,25.64
2016-12-31T00:32:07.636Z,25.69
2016-12-31T00:32:22.404Z,25.63
2016-12-31T00:32:37.200Z,25.62
2016-12-31T00:32:51.945Z,25.51
2016-12-31T00:33:06.792Z,25.52
2016-12-31T00:33:21.696Z,25.59
2016-12-31T00:33:36.551Z,25.59
2016-12-31T00:33:51.306Z,25.51
2016-12-31T00:34:06.371Z,25.45
2016-12-31T00:34:21.178Z,25.47
2016-12-31T00:34:36.028Z,25.47
2016-12-31T00:34:50.781Z,25.48
2016-12-31T00:35:05.460Z,25.54
2016-12-31T00:35:20.235Z,25.51
2016-12-31T00:35:35.052Z,25.49
2016-12-31T00:35:49.853Z,25.45
2016-12-31T00:36:04.674Z,25.39
2016-12-31T00:36:19.500Z,25.52
2016-12-31T00:36:34.319Z,25.49
2016-12-31T00:36:49.065Z,25.52
2016-12-31T00:37:03.869Z,25.51
2016-12-31T00:37:18.666Z,25.51
2016-12-31T00:37:33.421Z,25.48
2016-12-31T00:37:48.187Z,25.48
2016-12-31T00:38:03.068Z,25.54
2016-12-31T00:38:17.865Z,25.52
2016-12-31T00:38:32.609Z,25.49
2016-12-31T00:38:47.355Z,25.47
2016-12-31T00:39:02.222Z,25.52
2016-12-31T00:39:17.030Z,25.48
2016-12-31T00:39:31.854Z,25.57
2016-12-31T00:39:46.708Z,25.49
2016-12-31T00:40:01.468Z,25.57
2016-12-31T00:40:16.256Z,25.51
2016-12-31T00:40:31.056Z,25.56
2016-12-31T00:40:45.842Z,25.52
2016-12-31T00:41:00.655Z,25.51
2016-12-31T00:41:15.458Z,25.49
2016-12-31T00:41:30.310Z,25.49
2016-12-31T00:41:45.040Z,25.49
2016-12-31T00:41:59.839Z,25.49
2016-12-31T00:42:14.618Z,25.49
2016-12-31T00:42:29.391Z,25.41
2016-12-31T00:42:44.150Z,25.45
2016-12-31T00:42:58.925Z,25.44
2016-12-31T00:43:13.693Z,25.37
2016-12-31T00:43:28.577Z,25.45
2016-12-31T00:43:43.446Z,25.41
2016-12-31T00:43:58.236Z,25.42
2016-12-31T00:44:13.111Z,25.41
2016-12-31T00:44:27.930Z,25.39
2016-12-31T00:44:42.735Z,25.47
2016-12-31T00:44:57.472Z,25.39
2016-12-31T00:45:12.275Z,25.41
2016-12-31T00:45:27.005Z,25.47
2016-12-31T00:45:41.815Z,25.44
2016-12-31T00:45:56.636Z,25.39
2016-12-31T00:46:11.412Z,25.34
2016-12-31T00:46:26.161Z,25.38
2016-12-31T00:46:40.956Z,25.37
2016-12-31T00:46:55.765Z,25.37
2016-12-31T00:47:10.484Z,25.37
2016-12-31T00:47:25.296Z,25.37
2016-12-31T00:47:40.113Z,25.37
2016-12-31T00:47:54.907Z,25.32
2016-12-31T00:48:09.762Z,25.34
2016-12-31T00:48:24.550Z,25.29
2016-12-31T00:48:39.400Z,25.38
2016-12-31T00:48:54.221Z,25.38
2016-12-31T00:49:09.261Z,25.41
2016-12-31T00:49:24.085Z,25.37
2016-12-31T00:49:38.962Z,25.3
2016-12-31T00:49:53.754Z,25.33
2016-12-31T00:50:08.589Z,25.32
2016-12-31T00:50:23.407Z,25.38
2016-12-31T00:50:38.249Z,25.45
2016-12-31T00:50:53.039Z,25.37
2016-12-31T00:51:07.902Z,25.49
2016-12-31T00:51:22.745Z,25.47
2016-12-31T00:51:37.550Z,25.56
2016-12-31T00:51:52.329Z,25.62
2016-12-31T00:52:07.081Z,25.59
2016-12-31T00:52:21.859Z,25.6
2016-12-31T00:52:36.639Z,25.69
2016-12-31T00:52:51.486Z,25.64
2016-12-31T00:53:06.282Z,25.64
2016-12-31T00:53:21.076Z,25.63
2016-12-31T00:53:35.923Z,25.59
2016-12-31T00:53:50.642Z,25.63
2016-12-31T00:54:05.521Z,25.63
2016-12-31T00:54:20.286Z,25.7
2016-12-31T00:54:35.145Z,25.63
2016-12-31T00:54:49.895Z,25.67
2016-12-31T00:55:04.765Z,25.64
2016-12-31T00:55:19.533Z,25.63
2016-12-31T00:55:34.317Z,25.66
2016-12-31T00:55:49.134Z,25.63
2016-12-31T00:56:03.889Z,25.64
2016-12-31T00:56:18.747Z,25.66
2016-12-31T00:56:33.489Z,25.67
2016-12-31T00:56:48.256Z,25.62
2016-12-31T00:57:03.041Z,25.64
2016-12-31T00:57:17.850Z,25.6
2016-12-31T00:57:32.597Z,25.57
2016-12-31T00:57:47.455Z,25.56
2016-12-31T00:58:02.285Z,25.59
2016-12-31T00:58:17.126Z,25.56
2016-12-31T00:58:31.981Z,25.51
2016-12-31T00:58:46.722Z,25.49
2016-12-31T00:59:01.497Z,25.52
2016-12-31T00:59:16.337Z,25.49
2016-12-31T00:59:31.094Z,25.47
2016-12-31T00:59:45.906Z,25.41
2016-12-31T01:00:00.752Z,25.32
2016-12-31T01:00:15.593Z,25.38
2016-12-31T01:00:30.376Z,25.37
2016-12-31T01:00:45.134Z,25.33
2016-12-31T01:00:59.961Z,25.37
2016-12-31T01:01:14.788Z,25.32
2016-12-31T01:01:29.601Z,25.29
2016-12-31T01:01:44.521Z,25.39
2016-12-31T01:01:59.326Z,25.33
2016-12-31T01:02:14.073Z,25.33
2016-12-31T01:02:28.852Z,25.27
2016-12-31T01:02:43.709Z,25.12
2016-12-31T01:02:58.463Z,25.19
2016-12-31T01:03:13.238Z,25.19
2016-12-31T01:03:28.059Z,25.14
2016-12-31T01:03:42.825Z,25.2
2016-12-31T01:03:57.610Z,25.17
2016-12-31T01:04:12.420Z,25.19
2016-12-31T01:04:27.586Z,25.17
2016-12-31T01:04:42.388Z,25.2
2016-12-31T01:04:57.170Z,25.2
2016-12-31T01:05:11.915Z,25.27
2016-12-31T01:05:26.745Z,25.32
2016-12-31T01:05:41.447Z,25.3
2016-12-31T01:05:56.254Z,25.23
2016-12-31T01:06:11.141Z,25.32
2016-12-31T01:06:25.869Z,25.27
2016-12-31T01:06:40.704Z,25.26
2016-12-31T01:06:55.601Z,25.29
2016-12-31T01:07:10.440Z,25.26
2016-12-31T01:07:25.273Z,25.29
2016-12-31T01:07:40.023Z,25.33
2016-12-31T01:07:54.780Z,25.3
2016-12-31T01:08:09.653Z,25.39
2016-12-31T01:08:24.462Z,25.34
2016-12-31T01:08:39.218Z,25.33
2016-12-31T01:08:53.982Z,25.34
2016-12-31T01:09:08.841Z,25.41
2016-12-31T01:09:23.690Z,25.38
2016-12-31T01:09:38.493Z,25.37
2016-12-31T01:09:53.242Z,25.39
2016-12-31T01:10:08.021Z,25.34
2016-12-31T01:10:22.821Z,25.38
2016-12-31T01:10:37.640Z,25.45
2016-12-31T01:10:52.521Z,25.44
2016-12-31T01:11:07.287Z,25.37
2016-12-31T01:11:22.059Z,25.34
2016-12-31T01:11:36.988Z,25.3
2016-12-31T01:11:51.818Z,25.38
2016-12-31T01:12:06.617Z,25.42
2016-12-31T01:12:21.447Z,25.38
2016-12-31T01:12:36.265Z,25.32
2016-12-31T01:12:51.055Z,25.29
2016-12-31T01:13:05.839Z,25.3
2016-12-31T01:13:20.612Z,25.32
2016-12-31T01:13:35.482Z,25.34
2016-12-31T01:13:50.329Z,25.3
2016-12-31T01:14:05.175Z,25.29
2016-12-31T01:14:19.885Z,25.29
2016-12-31T01:14:34.689Z,25.26
2016-12-31T01:14:49.464Z,25.29
2016-12-31T01:15:04.289Z,25.32
2016-12-31T01:15:19.077Z,25.26
2016-12-31T01:15:33.901Z,25.15
2016-12-31T01:15:48.791Z,25.15
2016-12-31T01:16:03.590Z,25.15
2016-12-31T01:16:18.443Z,25.19
2016-12-31T01:16:33.244Z,25.19
2016-12-31T01:16:48.050Z,25.14
2016-12-31T01:17:02.822Z,25.15
2016-12-31T01:17:17.638Z,25.24
2016-12-31T01:17:32.442Z,25.22
2016-12-31T01:17:47.255Z,25.22
2016-12-31T01:18:02.105Z,25.19
2016-12-31T01:18:16.849Z,25.15
2016-12-31T01:18:31.665Z,25.23
2016-12-31T01:18:46.412Z,25.14
2016-12-31T01:19:01.210Z,25.19
2016-12-31T01:19:16.027Z,25.2
2016-12-31T01:19:31.155Z,25.23
2016-12-31T01:19:45.969Z,25.22
2016-12-31T01:20:00.761Z,25.23
2016-12-31T01:20:15.549Z,25.2
2016-12-31T01:20:30.270Z,25.19
2016-12-31T01:20:44.989Z,25.09
2016-12-31T01:20:59.700Z,25.22
2016-12-31T01:21:14.473Z,25.2
2016-12-31T01:21:29.236Z,25.19
2016-12-31T01:21:44.086Z,25.2
2016-12-31T01:21:58.878Z,25.2
2016-12-31T01:22:13.685Z,25.2
2016-12-31T01:22:28.489Z,25.19
2016-12-31T01:22:43.300Z,25.2
2016-12-31T01:22:58.096Z,25.22
2016-12-31T01:23:12.920Z,25.23
2016-12-31T01:23:27.659Z,25.2
2016-12-31T01:23:42.574Z,25.2
2016-12-31T01:23:57.323Z,25.2
2016-12-31T01:24:12.125Z,25.2
2016-12-31T01:24:26.952Z,25.19
2016-12-31T01:24:41.736Z,25.04
2016-12-31T01:24:56.574Z,25.17
2016-12-31T01:25:11.429Z,25.22
2016-12-31T01:25:26.196Z,25.2
2016-12-31T01:25:41.019Z,25.15
2016-12-31T01:25:55.825Z,25.2
2016-12-31T01:26:10.652Z,25.19
2016-12-31T01:26:25.508Z,25.17
2016-12-31T01:26:40.287Z,25.17
2016-12-31T01:26:55.110Z,25.19
2016-12-31T01:27:09.911Z,25.19
2016-12-31T01:27:24.707Z,25.2
2016-12-31T01:27:39.450Z,25.17
2016-12-31T01:27:54.249Z,25.14
2016-12-31T01:28:09.051Z,25.23
2016-12-31T01:28:23.809Z,25.17
2016-12-31T01:28:38.569Z,25.17
2016-12-31T01:28:53.367Z,25.22
2016-12-31T01:29:08.197Z,25.2
2016-12-31T01:29:23.020Z,25.12
2016-12-31T01:29:37.907Z,25.17
2016-12-31T01:29:52.793Z,25.14
2016-12-31T01:30:07.714Z,25.24
2016-12-31T01:30:22.556Z,25.17
2016-12-31T01:30:37.413Z,25.33
2016-12-31T01:30:52.225Z,25.19
2016-12-31T01:31:06.964Z,25.19
2016-12-31T01:31:21.754Z,25.22
2016-12-31T01:31:36.601Z,25.2
2016-12-31T01:31:51.393Z,25.34
2016-12-31T01:32:06.153Z,25.19
2016-12-31T01:32:20.954Z,25.17
2016-12-31T01:32:35.736Z,25.19
2016-12-31T01:32:50.576Z,25.19
2016-12-31T01:33:05.399Z,25.2
2016-12-31T01:33:20.206Z,25.19
2016-12-31T01:33:34.986Z,25.27
2016-12-31T01:33:49.828Z,25.29
2016-12-31T01:34:04.610Z,25.33
2016-12-31T01:34:19.421Z,25.27
2016-12-31T01:34:34.441Z,25.33
2016-12-31T01:34:49.198Z,25.3
2016-12-31T01:35:03.992Z,25.3
2016-12-31T01:35:18.778Z,25.3
2016-12-31T01:35:33.548Z,25.34
2016-12-31T01:35:48.253Z,25.29
2016-12-31T01:36:03.031Z,25.26
2016-12-31T01:36:17.784Z,25.32
2016-12-31T01:36:32.641Z,25.32
2016-12-31T01:36:47.465Z,25.38
2016-12-31T01:37:02.316Z,25.42
2016-12-31T01:37:17.095Z,25.37
2016-12-31T01:37:31.824Z,25.39
2016-12-31T01:37:46.717Z,25.47
2016-12-31T01:38:01.520Z,25.48
2016-12-31T01:38:16.288Z,25.62
2016-12-31T01:38:31.102Z,25.56
2016-12-31T01:38:45.944Z,25.54
2016-12-31T01:39:00.726Z,25.54
2016-12-31T01:39:15.510Z,25.54
2016-12-31T01:39:30.298Z,25.52
2016-12-31T01:39:45.107Z,25.54
2016-12-31T01:39:59.831Z,25.56
2016-12-31T01:40:14.689Z,25.49
2016-12-31T01:40:29.469Z,25.49
2016-12-31T01:40:44.289Z,25.49
2016-12-31T01:40:59.074Z,25.52
2016-12-31T01:41:13.892Z,25.45
2016-12-31T01:41:28.643Z,25.51
2016-12-31T01:41:43.472Z,25.47
2016-12-31T01:41:58.307Z,25.42
2016-12-31T01:42:13.145Z,25.39
2016-12-31T01:42:27.939Z,25.44
2016-12-31T01:42:42.804Z,25.45
2016-12-31T01:42:57.551Z,25.41
2016-12-31T01:43:12.385Z,25.44
2016-12-31T01:43:27.113Z,25.34
2016-12-31T01:43:41.939Z,25.44
2016-12-31T01:43:56.775Z,25.44
2016-12-31T01:44:11.585Z,25.44
2016-12-31T01:44:26.415Z,25.59
2016-12-31T01:44:41.206Z,25.49
2016-12-31T01:44:56.077Z,25.56
2016-12-31T01:45:10.871Z,25.57
2016-12-31T01:45:25.645Z,25.64
2016-12-31T01:45:40.422Z,25.63
2016-12-31T01:45:55.137Z,25.67
2016-12-31T01:46:09.924Z,25.7
2016-12-31T01:46:24.733Z,25.64
2016-12-31T01:46:39.521Z,25.57
2016-12-31T01:46:54.328Z,25.54
2016-12-31T01:47:09.160Z,25.51
2016-12-31T01:47:23.976Z,25.49
2016-12-31T01:47:38.805Z,25.57
2016-12-31T01:47:53.588Z,25.52
2016-12-31T01:48:08.425Z,25.54
2016-12-31T01:48:23.167Z,25.44
2016-12-31T01:48:37.984Z,25.51
2016-12-31T01:48:52.818Z,25.49
2016-12-31T01:49:07.603Z,25.54
2016-12-31T01:49:22.365Z,25.48
2016-12-31T01:49:37.199Z,25.56
2016-12-31T01:49:52.261Z,25.56
2016-12-31T01:50:07.088Z,25.56
2016-12-31T01:50:21.949Z,25.63
2016-12-31T01:50:36.728Z,25.66
2016-12-31T01:50:51.511Z,25.69
2016-12-31T01:51:06.321Z,25.67
2016-12-31T01:51:21.094Z,25.74
2016-12-31T01:51:35.856Z,25.71
2016-12-31T01:51:50.657Z,25.74
2016-12-31T01:52:05.382Z,25.71
2016-12-31T01:52:20.172Z,25.74
2016-12-31T01:52:34.959Z,25.74
2016-12-31T01:52:49.804Z,25.74
2016-12-31T01:53:04.591Z,25.74
2016-12-31T01:53:19.426Z,25.64
2016-12-31T01:53:34.200Z,25.66
2016-12-31T01:53:48.994Z,25.66
2016-12-31T01:54:03.786Z,25.62
2016-12-31T01:54:18.597Z,25.62
2016-12-31T01:54:33.370Z,25.7
2016-12-31T01:54:48.134Z,25.63
2016-12-31T01:55:02.947Z,25.64
2016-12-31T01:55:17.739Z,25.63
2016-12-31T01:55:32.563Z,25.69
2016-12-31T01:55:47.342Z,25.71
2016-12-31T01:56:02.117Z,25.7
2016-12-31T01:56:16.939Z,25.67
2016-12-31T01:56:31.721Z,25.74
2016-12-31T01:56:46.483Z,25.76
2016-12-31T01:57:01.314Z,25.67
2016-12-31T01:57:16.107Z,25.67
2016-12-31T01:57:30.842Z,25.67
2016-12-31T01:57:45.667Z,25.7
2016-12-31T01:58:00.530Z,25.69
2016-12-31T01:58:15.353Z,25.66
2016-12-31T01:58:30.136Z,25.67
2016-12-31T01:58:44.947Z,25.64
2016-12-31T01:58:59.711Z,25.57
2016-12-31T01:59:14.521Z,25.59
2016-12-31T01:59:29.383Z,25.63
2016-12-31T01:59:44.246Z,25.7
2016-12-31T01:59:59.064Z,25.66
2016-12-31T02:00:13.822Z,25.6
2016-12-31T02:00:28.675Z,25.63
2016-12-31T02:00:43.488Z,25.74
2016-12-31T02:00:58.310Z,25.71
2016-12-31T02:01:13.080Z,25.67
2016-12-31T02:01:27.925Z,25.75
2016-12-31T02:01:42.725Z,25.71
2016-12-31T02:01:57.493Z,25.69
2016-12-31T02:02:12.381Z,25.62
2016-12-31T02:02:27.197Z,25.67
2016-12-31T02:02:41.917Z,25.66
2016-12-31T02:02:56.734Z,25.71
2016-12-31T02:03:11.484Z,25.67
2016-12-31T02:03:26.240Z,25.63
2016-12-31T02:03:41.096Z,25.69
2016-12-31T02:03:55.900Z,25.64
2016-12-31T02:04:10.726Z,25.6
2016-12-31T02:04:25.502Z,25.66
2016-12-31T02:04:40.348Z,25.67
2016-12-31T02:04:55.599Z,25.67
2016-12-31T02:05:10.452Z,25.64
2016-12-31T02:05:25.294Z,25.67
2016-12-31T02:05:40.095Z,25.69
2016-12-31T02:05:54.792Z,25.59
2016-12-31T02:06:09.552Z,25.6
2016-12-31T02:06:24.334Z,25.52
2016-12-31T02:06:39.154Z,25.6
2016-12-31T02:06:53.977Z,25.49
2016-12-31T02:07:08.858Z,25.49
2016-12-31T02:07:23.658Z,25.56
2016-12-31T02:07:38.387Z,25.52
2016-12-31T02:07:53.109Z,25.51
2016-12-31T02:08:07.923Z,25.49
2016-12-31T02:08:22.624Z,25.47
2016-12-31T02:08:37.459Z,25.44
2016-12-31T02:08:52.289Z,25.52
2016-12-31T02:09:07.009Z,25.54
2016-12-31T02:09:21.800Z,25.48
2016-12-31T02:09:36.655Z,25.47
2016-12-31T02:09:51.427Z,25.52
2016-12-31T02:10:06.223Z,25.47
2016-12-31T02:10:21.129Z,25.48
2016-12-31T02:10:36.035Z,25.49
2016-12-31T02:10:50.844Z,25.45
2016-12-31T02:11:05.857Z,25.47
2016-12-31T02:11:20.665Z,25.37
2016-12-31T02:11:35.445Z,25.33
2016-12-31T02:11:50.202Z,25.33
2016-12-31T02:12:04.994Z,25.29
2016-12-31T02:12:19.792Z,25.39
2016-12-31T02:12:34.722Z,25.33
2016-12-31T02:12:49.485Z,25.27
2016-12-31T02:13:04.304Z,25.26
2016-12-31T02:13:19.095Z,25.27
2016-12-31T02:13:33.890Z,25.3
2016-12-31T02:13:48.705Z,25.3
2016-12-31T02:14:03.581Z,25.24
2016-12-31T02:14:18.349Z,25.29
2016-12-31T02:14:33.130Z,25.3
2016-12-31T02:14:47.980Z,25.3
2016-12-31T02:15:02.787Z,25.33
2016-12-31T02:15:17.688Z,25.38
2016-12-31T02:15:32.453Z,25.41
2016-12-31T02:15:47.307Z,25.41
2016-12-31T02:16:02.076Z,25.49
2016-12-31T02:16:16.880Z,25.49
2016-12-31T02:16:31.782Z,25.48
2016-12-31T02:16:46.543Z,25.52
2016-12-31T02:17:01.362Z,25.44
2016-12-31T02:17:16.144Z,25.49
2016-12-31T02:17:30.923Z,25.49
2016-12-31T02:17:45.683Z,25.48
2016-12-31T02:18:00.522Z,25.49
2016-12-31T02:18:15.261Z,25.52
2016-12-31T02:18:30.108Z,25.52
2016-12-31T02:18:44.892Z,25.51
2016-12-31T02:18:59.720Z,25.56
2016-12-31T02:19:14.615Z,25.62
2016-12-31T02:19:29.433Z,25.54
2016-12-31T02:19:44.253Z,25.66
2016-12-31T02:19:59.354Z,25.63
2016-12-31T02:20:14.159Z,25.63
2016-12-31T02:20:28.960Z,25.64
2016-12-31T02:20:43.763Z,25.63
2016-12-31T02:20:58.541Z,25.57
2016-12-31T02:21:13.352Z,25.52
2016-12-31T02:21:28.140Z,25.6
2016-12-31T02:21:42.934Z,25.54
2016-12-31T02:21:57.703Z,25.54
2016-12-31T02:22:12.514Z,25.49
2016-12-31T02:22:27.267Z,25.51
2016-12-31T02:22:42.011Z,25.59
2016-12-31T02:22:56.730Z,25.54
2016-12-31T02:23:11.560Z,25.48
2016-12-31T02:23:26.286Z,25.54
2016-12-31T02:23:41.109Z,25.45
2016-12-31T02:23:55.869Z,25.42
2016-12-31T02:24:10.746Z,25.45
2016-12-31T02:24:25.597Z,25.41
2016-12-31T02:24:40.415Z,25.39
2016-12-31T02:24:55.228Z,25.47
2016-12-31T02:25:10.115Z,25.41
2016-12-31T02:25:24.874Z,25.48
2016-12-31T02:25:39.666Z,25.44
2016-12-31T02:25:54.402Z,25.47
2016-12-31T02:26:09.188Z,25.39
2016-12-31T02:26:24.001Z,25.39
2016-12-31T02:26:38.738Z,25.41
2016-12-31T02:26:53.593Z,25.44
2016-12-31T02:27:08.421Z,25.34
2016-12-31T02:27:23.223Z,25.42
2016-12-31T02:27:38.033Z,25.42
2016-12-31T02:27:52.804Z,25.39
2016-12-31T02:28:07.576Z,25.33
2016-12-31T02:28:22.373Z,25.34
2016-12-31T02:28:37.198Z,25.3
2016-12-31T02:28:51.965Z,25.3
2016-12-31T02:29:06.754Z,25.29
2016-12-31T02:29:21.557Z,25.37
2016-12-31T02:29:36.325Z,25.37
2016-12-31T02:29:51.181Z,25.38
2016-12-31T02:30:05.939Z,25.39
2016-12-31T02:30:20.729Z,25.44
2016-12-31T02:30:35.648Z,25.47
2016-12-31T02:30:50.515Z,25.52
2016-12-31T02:31:05.258Z,25.52
2016-12-31T02:31:20.096Z,25.45
2016-12-31T02:31:34.886Z,25.54
2016-12-31T02:31:49.683Z,25.49
2016-12-31T02:32:04.417Z,25.54
2016-12-31T02:32:19.207Z,25.45
2016-12-31T02:32:34.029Z,25.54
2016-12-31T02:32:48.753Z,25.51
2016-12-31T02:33:03.588Z,25.45
2016-12-31T02:33:18.396Z,25.45
2016-12-31T02:33:33.154Z,25.41
2016-12-31T02:33:47.934Z,25.41
2016-12-31T02:34:02.765Z,25.39
2016-12-31T02:34:17.569Z,25.39
2016-12-31T02:34:32.340Z,25.45
2016-12-31T02:34:47.079Z,25.41
2016-12-31T02:35:01.843Z,25.41
2016-12-31T02:35:17.107Z,25.41
2016-12-31T02:35:31.931Z,25.42
2016-12-31T02:35:46.714Z,25.34
2016-12-31T02:36:01.525Z,25.39
2016-12-31T02:36:16.339Z,25.42
2016-12-31T02:36:31.255Z,25.47
2016-12-31T02:36:46.013Z,25.47
2016-12-31T02:37:00.798Z,25.51
2016-12-31T02:37:15.500Z,25.49
2016-12-31T02:37:30.306Z,25.51
2016-12-31T02:37:45.128Z,25.49
2016-12-31T02:37:59.925Z,25.44
2016-12-31T02:38:14.716Z,25.41
2016-12-31T02:38:29.521Z,25.44
2016-12-31T02:38:44.287Z,25.32
2016-12-31T02:38:59.085Z,25.34
2016-12-31T02:39:13.823Z,25.32
2016-12-31T02:39:28.584Z,25.39
2016-12-31T02:39:43.378Z,25.29
2016-12-31T02:39:58.162Z,25.3
2016-12-31T02:40:12.980Z,25.29
2016-12-31T02:40:27.765Z,25.27
2016-12-31T02:40:42.563Z,25.24
2016-12-31T02:40:57.393Z,25.3
2016-12-31T02:41:12.218Z,25.17
2016-12-31T02:41:27.013Z,25.2
2016-12-31T02:41:41.803Z,25.23
2016-12-31T02:41:56.620Z,25.07
2016-12-31T02:42:11.440Z,25.04
2016-12-31T02:42:26.229Z,25.15
2016-12-31T02:42:41.101Z,25.14
2016-12-31T02:42:55.910Z,25.12
2016-12-31T02:43:10.619Z,25.14
2016-12-31T02:43:25.420Z,25.09
2016-12-31T02:43:40.222Z,25.04
2016-12-31T02:43:55.012Z,25.04
2016-12-31T02:44:09.830Z,25.07
2016-12-31T02:44:24.590Z,25.04
2016-12-31T02:44:39.365Z,25.15
2016-12-31T02:44:54.227Z,25.08
2016-12-31T02:45:09.018Z,25.08
2016-12-31T02:45:23.813Z,25.2
2016-12-31T02:45:38.534Z,25.2
2016-12-31T02:45:53.358Z,25.34
2016-12-31T02:46:08.127Z,25.32
2016-12-31T02:46:22.989Z,25.33
2016-12-31T02:46:37.814Z,25.33
2016-12-31T02:46:52.664Z,25.29
2016-12-31T02:47:07.448Z,25.29
2016-12-31T02:47:22.235Z,25.32
2016-12-31T02:47:37.003Z,25.29
2016-12-31T02:47:51.804Z,25.34
2016-12-31T02:48:06.575Z,25.19
2016-12-31T02:48:21.419Z,25.17
2016-12-31T02:48:36.144Z,25.2
2016-12-31T02:48:50.985Z,25.27
2016-12-31T02:49:05.691Z,25.27
2016-12-31T02:49:20.434Z,25.2
2016-12-31T02:49:35.176Z,25.22
2016-12-31T02:49:49.922Z,25.19
2016-12-31T02:50:04.712Z,25.17
2016-12-31T02:50:19.988Z,25.19
2016-12-31T02:50:34.775Z,25.17
2016-12-31T02:50:49.626Z,25.19
2016-12-31T02:51:04.409Z,25.19
2016-12-31T02:51:19.193Z,25.22
2016-12-31T02:51:33.975Z,25.23
2016-12-31T02:51:48.774Z,25.19
2016-12-31T02:52:03.540Z,25.19
2016-12-31T02:52:18.369Z,25.14
2016-12-31T02:52:33.169Z,25.07
2016-12-31T02:52:47.986Z,25.14
2016-12-31T02:53:02.756Z,25.04
2016-12-31T02:53:17.618Z,25.11
2016-12-31T02:53:32.426Z,25.14
2016-12-31T02:53:47.194Z,25.12
2016-12-31T02:54:02.011Z,25.22
2016-12-31T02:54:16.801Z,25.23
2016-12-31T02:54:31.666Z,25.2
2016-12-31T02:54:46.504Z,25.29
2016-12-31T02:55:01.273Z,25.44
2016-12-31T02:55:16.148Z,25.33
2016-12-31T02:55:30.899Z,25.45
2016-12-31T02:55:45.664Z,25.38
2016-12-31T02:56:00.507Z,25.48
2016-12-31T02:56:15.363Z,25.49
2016-12-31T02:56:30.172Z,25.49
2016-12-31T02:56:44.986Z,25.48
2016-12-31T02:56:59.780Z,25.42
2016-12-31T02:57:14.613Z,25.41
2016-12-31T02:57:29.417Z,25.39
2016-12-31T02:57:44.205Z,25.41
2016-12-31T02:57:59.057Z,25.39
2016-12-31T02:58:13.858Z,25.45
2016-12-31T02:58:28.695Z,25.42
2016-12-31T02:58:43.449Z,25.49
2016-12-31T02:58:58.258Z,25.49
2016-12-31T02:59:13.017Z,25.51
2016-12-31T02:59:27.808Z,25.48
2016-12-31T02:59:42.547Z,25.45
2016-12-31T02:59:57.354Z,25.49
2016-12-31T03:00:12.184Z,25.48
2016-12-31T03:00:26.985Z,25.41
2016-12-31T03:00:41.835Z,25.37
2016-12-31T03:00:56.596Z,25.42
2016-12-31T03:01:11.390Z,25.34
2016-12-31T03:01:26.139Z,25.3
2016-12-31T03:01:40.903Z,25.38
2016-12-31T03:01:55.679Z,25.33
2016-12-31T03:02:10.440Z,25.32
2016-12-31T03:02:25.171Z,25.37
2016-12-31T03:02:39.940Z,25.42
2016-12-31T03:02:54.705Z,25.34
2016-12-31T03:03:09.489Z,25.38
2016-12-31T03:03:24.332Z,25.51
2016-12-31T03:03:39.139Z,25.54
2016-12-31T03:03:53.887Z,25.51
2016-12-31T03:04:08.727Z,25.48
2016-12-31T03:04:23.561Z,25.59
2016-12-31T03:04:38.372Z,25.54
2016-12-31T03:04:53.175Z,25.57
2016-12-31T03:05:07.962Z,25.63
2016-12-31T03:05:22.829Z,25.69
2016-12-31T03:05:37.985Z,25.63
2016-12-31T03:05:52.752Z,25.64
2016-12-31T03:06:07.582Z,25.66
2016-12-31T03:06:22.438Z,25.56
2016-12-31T03:06:37.209Z,25.64
2016-12-31T03:06:52.042Z,25.67
2016-12-31T03:07:06.874Z,25.71
2016-12-31T03:07:21.648Z,25.66
2016-12-31T03:07:36.419Z,25.6
2016-12-31T03:07:51.156Z,25.67
2016-12-31T03:08:05.969Z,25.66
2016-12-31T03:08:20.696Z,25.69
2016-12-31T03:08:35.496Z,25.66
2016-12-31T03:08:50.271Z,25.66
2016-12-31T03:09:05.013Z,25.66
2016-12-31T03:09:19.766Z,25.62
2016-12-31T03:09:34.595Z,25.64
2016-12-31T03:09:49.414Z,25.67
2016-12-31T03:10:04.140Z,25.59
2016-12-31T03:10:18.931Z,25.59
2016-12-31T03:10:33.771Z,25.51
2016-12-31T03:10:48.688Z,25.56
2016-12-31T03:11:03.521Z,25.59